Station info - map view · info · telemetry · weather · raw · status · beacons · messages · bulletins · browse · moving · my account
Callsign, ship name or locator: Clear       
It is possible to search using wildcards (*?) after a prefix. Example: OH*
APRS station DG0CAW-9 - show graphs
Map loading...
Mic-E message: Off duty
Location: 50°03.51' N 8°22.22' E - locator JO40EB44KA - show map - static map
3.0 miles North bearing 17° from Hochheim am Main, Hesse, Germany [?]
4.5 miles North bearing 2° from Bischofsheim, Regierungsbezirk Darmstadt, Hesse, Germany
14.4 miles West bearing 254° from Frankfurt am Main, Regierungsbezirk Darmstadt, Hesse, Germany
86.8 miles Southeast bearing 134° from Köln (Koeln), Regierungsbezirk Köln, North Rhine-Westphalia, Germany
Last position: 2019-09-11 16:10:03 EDT (11d 19h58m ago)
2019-09-11 22:10:03 CEST local time at Hochheim am Main, Germany [?]
Altitude: 476 ft
Course: 20°
Speed: 0 MPH
Device: Yaesu: FTM-100D (rig)
Last path: DG0CAW-9>UPPSU1 via qAS,DB0AIS
Positions stored: 2399
Other SSIDs: DG0CAW
Stations near current position of DG0CAW-9 - show more
callsign distance last heard - EDT      callsign distance last heard - EDT
DL1DBY-DP1.9 miles 66°2019-09-08 10:02:19 P20403433.2 miles 89°2019-09-04 09:11:32
PS-DM0MTK3.2 miles 191°2019-09-23 12:01:32 DL1JU-133.3 miles 202°2019-09-23 12:08:11
EL-DL0DLH3.6 miles 99°2019-09-01 18:48:41 DF9388063.9 miles 165°2019-08-28 05:52:50
DF90086463.9 miles 166°2019-08-28 05:52:30 DD8ZX-74.5 miles 60°2019-09-13 21:10:05
DL5KBM-104.5 miles 204°2019-09-22 07:06:02 DD8ZX4.7 miles 58°2019-08-25 15:58:56
DFM60964.9 miles 158°2019-09-04 09:35:56 DO9PH5.0 miles 155°2019-09-21 03:52:41
DK2FI5.2 miles 230°2019-09-20 07:10:23 DF6388065.3 miles 133°2019-08-28 06:12:07
DK5FS-85.4 miles 73°2019-09-15 11:50:04 HALDA1-155.4 miles 152°2019-09-22 19:36:31
DL4FEU5.6 miles 300°2019-09-23 12:01:24 DL1JU-85.7 miles 206°2019-09-23 11:38:21
DL0MZ5.9 miles 224°2019-09-23 12:08:13 DD2ZN-76.0 miles 328°2019-09-16 16:21:54
Stations which heard DG0CAW-9 directly on radio –
callsign pkts first heard - EDT last heard longest (tx => rx) longest at - EDT
DB0KX-2 17 2019-09-11 14:04:34 2019-09-11 15:12:52 JO30RO > JO31EG 65.7 miles 315° 2019-09-11 15:12:52
DB0MI 1 2019-09-11 15:54:36 2019-09-11 15:54:36 JO40DF > JN49PS 54.9 miles 122° 2019-09-11 15:54:36
DB0LJ 1 2019-09-11 15:28:11 2019-09-11 15:28:11 JO30VL > JO30QJ 19.4 miles 253° 2019-09-11 15:28:11
DB0MYK 2 2019-09-11 15:14:01 2019-09-11 15:21:13 JO30TM > JO30OJ 19.8 miles 242° 2019-09-11 15:21:13
DB0GV 1 2019-09-11 15:49:41 2019-09-11 15:49:41 JO40CH > JN59BD 116.7 miles 133° 2019-09-11 15:49:41
DB0KT 2 2019-09-11 15:54:38 2019-09-11 16:07:54 JO40EB > JO40PL 49.7 miles 53° 2019-09-11 16:07:54
DB0IDS 7 2019-09-11 15:44:57 2019-09-11 15:56:56 JO40BI > JO40CF 10.3 miles 156° 2019-09-11 15:44:57
DB0OTV-2 1 2019-09-11 14:03:24 2019-09-11 14:03:24 JO31ID > JO31HG 9.1 miles 321° 2019-09-11 14:03:24
DB0RHB 1 2019-09-11 14:15:30 2019-09-11 14:15:30 JO31KA > JO30LN 30.3 miles 174° 2019-09-11 14:15:30
DB0NY 7 2019-09-11 14:32:06 2019-09-11 15:23:33 JO30UM > JO31TB 37.4 miles 356° 2019-09-11 15:23:33
DB0KOE 33 2019-09-11 14:11:53 2019-09-11 15:19:58 JO30SN > JO30LW 38.2 miles 314° 2019-09-11 15:19:58
DK0HQ 2 2019-09-11 14:53:19 2019-09-11 15:16:20 JO30RN > JO30NR 18.4 miles 304° 2019-09-11 15:16:20
DL8KZ 39 2019-09-11 14:22:03 2019-09-11 15:14:34 JO31LA > JO30PQ 27.9 miles 151° 2019-09-11 14:24:58
DJ8HS-1 3 2019-09-11 16:05:29 2019-09-11 16:09:03 JO40EB > JO40CB 8.4 miles 263° 2019-09-11 16:05:29
DB0FDA 6 2019-09-11 15:54:35 2019-09-11 16:06:39 JO40DF > JN49HU 29.5 miles 144° 2019-09-11 15:54:35
DC4ZZ 1 2019-09-11 15:51:27 2019-09-11 15:51:27 JO40DG > JO40LC 32.7 miles 108° 2019-09-11 15:51:27
DB0LDK 3 2019-09-11 15:35:28 2019-09-11 15:38:42 JO30XK > JO40GM 27.6 miles 73° 2019-09-11 15:35:28
DB0NIS-10 15 2019-09-11 14:03:58 2019-09-11 15:14:00 JO30RO > JO30EP 45.7 miles 276° 2019-09-11 15:14:00
DB5WY-13 10 2019-09-11 15:35:27 2019-09-11 15:47:50 JO40CH > JO30XO 21.3 miles 329° 2019-09-11 15:47:50
DB0UT-10 2 2019-09-11 15:12:14 2019-09-11 15:21:12 JO30QO > JN39NR 61.3 miles 192° 2019-09-11 15:12:14
DB0EJ 2 2019-09-11 15:58:13 2019-09-11 15:59:27 JO40DD > JO40GD 11.9 miles 96° 2019-09-11 15:58:13
DB0XO 3 2019-09-11 14:14:52 2019-09-11 14:20:11 JO31LA > JO30IW 9.9 miles 246° 2019-09-11 14:20:11
DB0GIS-10 3 2019-09-11 15:34:52 2019-09-11 15:48:25 JO30XK > JO40JN 37.9 miles 77° 2019-09-11 15:34:52
DO1RPR-10 2 2019-09-11 14:04:33 2019-09-11 14:20:46 JO31LA > JO31LE 11.3 miles 1° 2019-09-11 14:20:46
DB0AIS 7 2019-09-11 15:52:42 2019-09-11 16:10:03 JO40CF > JN49HX 23.5 miles 139° 2019-09-11 15:52:42
DB0KH-10 1 2019-09-11 15:39:05 2019-09-11 15:39:05 JO40AJ > JO40RV 71.1 miles 60° 2019-09-11 15:39:05
DB0DUS-10 3 2019-09-11 14:05:15 2019-09-11 14:07:39 JO31JC > JO31JG 11.8 miles 355° 2019-09-11 14:07:39

Only position packets which were originated by the station are shown here. The range statistics show some extra long hops, because some digipeaters do not correctly add themselves to the digipeater path. Please check the raw packets.
About this site
This page shows real-time information collected from the Automatic Position Reporting System Internet network (APRS-IS). APRS is used by amateur (ham) radio operators to transmit real-time position information, weather data, telemetry and messages over the radio. A vehicle equipped with a GPS receiver, a VHF transmitter or HF transceiver and a small computer device called a tracker transmits it's location, speed and course in a small data packet, which is then received by a nearby iGate receiving site which forwards the packet on the Internet. Systems connected to the Internet can send information on the APRS-IS without a radio transmitter, or collect and display information transmitted anywhere in the world.
User guide · FAQ · Blog · Discussion group · Linking to aprs.fi · AIS sites · Service status · Database statistics · Advertising on aprs.fi · Technical details · API · Change log · Planned changes · Credits and thanks · Terms Of Service · iPhone/iPad APRS